Time;durP1;ratioP1;P1;durP2;ratioP2;P2;SDS_P1;SDS_P2;PMS_P1;PMS_P2;Temp;Humidity;BMP_temperature;BMP_pressure;BME280_temperature;BME280_humidity;BME280_pressure;Samples;Min_cycle;Max_cycle;Signal;HPM_P1;HPM_P2
2021/04/23 00:01:52;;;;;;;2.00;1.42;;;;;;;9.19;99.77;93342.41;5049040;28;19921;-77
2021/04/23 00:04:19;;;;;;;5.15;2.10;;;;;;;9.18;100.00;93334.91;5048779;28;20102;-77
2021/04/23 00:06:51;;;;;;;2.35;1.02;;;;;;;9.18;100.00;93337.47;5048742;28;20063;-77
2021/04/23 00:09:19;;;;;;;2.80;1.52;;;;;;;9.20;100.00;93341.41;5049022;28;20049;-77
2021/04/23 00:11:49;;;;;;;2.40;1.13;;;;;;;9.24;100.00;93344.38;5048817;28;20159;-77
2021/04/23 00:14:18;;;;;;;2.17;1.17;;;;;;;9.26;100.00;93339.81;5048939;28;20045;-77
2021/04/23 00:16:44;;;;;;;1.90;1.20;;;;;;;9.27;100.00;93335.50;5048460;28;20550;-77
2021/04/23 00:19:14;;;;;;;3.35;1.63;;;;;;;9.28;100.00;93337.06;5049207;28;20053;-77
2021/04/23 00:21:41;;;;;;;2.78;1.48;;;;;;;9.28;100.00;93337.06;5052649;28;20533;-77
2021/04/23 00:24:09;;;;;;;2.20;0.90;;;;;;;9.19;100.00;93328.78;5052473;28;20045;-79
2021/04/23 00:26:36;;;;;;;2.30;1.13;;;;;;;9.19;100.00;93315.97;5052629;28;20052;-78
2021/04/23 00:29:04;;;;;;;3.75;1.65;;;;;;;9.29;100.00;93325.81;5052229;28;20091;-77
2021/04/23 00:31:30;;;;;;;2.53;1.17;;;;;;;9.27;100.00;93320.13;5052548;28;20054;-77
2021/04/23 00:33:56;;;;;;;;;;;;;;;9.39;100.00;93335.69;5053077;28;20048;-77
2021/04/23 00:36:23;;;;;;;1.60;1.35;;;;;;;9.28;100.00;93327.59;5052094;28;19928;-77
2021/04/23 00:38:49;;;;;;;2.88;1.23;;;;;;;9.23;100.00;93338.44;5052543;28;20164;-77
2021/04/23 00:41:22;;;;;;;2.55;1.30;;;;;;;9.10;100.00;93315.38;5052165;28;20060;-77
2021/04/23 00:43:56;;;;;;;1.85;1.35;;;;;;;9.25;100.00;93334.91;5052238;28;20392;-77
2021/04/23 00:46:23;;;;;;;3.83;1.70;;;;;;;9.21;100.00;93335.28;5051864;28;20053;-78
2021/04/23 00:48:49;;;;;;;1.75;1.17;;;;;;;9.25;100.00;93343.38;5052557;28;20068;-77
2021/04/23 00:51:18;;;;;;;2.70;1.42;;;;;;;9.25;100.00;93340.03;5051921;28;20055;-77
2021/04/23 00:53:47;;;;;;;3.15;2.15;;;;;;;9.18;100.00;93327.22;5051830;28;20049;-77
2021/04/23 00:56:17;;;;;;;3.63;1.35;;;;;;;9.19;100.00;93332.16;5051965;28;20053;-77
2021/04/23 00:58:44;;;;;;;2.38;1.45;;;;;;;9.25;100.00;93347.72;5052000;28;20045;-77
2021/04/23 01:01:13;;;;;;;3.47;2.00;;;;;;;9.19;100.00;93346.72;5051824;28;20056;-77
2021/04/23 01:03:40;;;;;;;3.33;1.67;;;;;;;9.13;100.00;93343.19;5051753;28;20053;-77
2021/04/23 01:06:11;;;;;;;2.40;1.65;;;;;;;9.05;100.00;93339.06;5052008;28;20048;-77
2021/04/23 01:08:37;;;;;;;4.20;2.25;;;;;;;9.11;100.00;93352.84;5051945;28;20056;-78
2021/04/23 01:11:04;;;;;;;3.92;1.80;;;;;;;9.12;100.00;93354.41;5051441;28;20088;-78
2021/04/23 01:13:31;;;;;;;3.83;1.83;;;;;;;9.12;100.00;93351.84;5051654;28;20044;-78
2021/04/23 01:15:59;;;;;;;4.43;2.15;;;;;;;9.08;100.00;93356.56;5051816;28;20137;-78
2021/04/23 01:18:26;;;;;;;10.95;2.55;;;;;;;9.11;100.00;93355.41;5051751;28;20041;-77
2021/04/23 01:21:01;;;;;;;5.85;1.80;;;;;;;9.01;100.00;93358.34;5051424;28;20053;-77
2021/04/23 01:23:28;;;;;;;;;;;;;;;8.84;100.00;93337.44;5052151;28;20481;-78
2021/04/23 01:25:54;;;;;;;2.63;1.58;;;;;;;8.94;100.00;93355.00;5051276;28;19924;-78
2021/04/23 01:28:20;;;;;;;4.07;2.28;;;;;;;9.00;100.00;93369.59;5051303;28;20045;-80
2021/04/23 01:30:46;;;;;;;;;;;;;;;9.01;100.00;93367.81;5051460;28;20056;-80
2021/04/23 01:33:13;;;;;;;3.03;2.40;;;;;;;8.83;100.00;93351.22;5051625;28;19925;-81
2021/04/23 01:35:39;;;;;;;;;;;;;;;8.94;100.00;93373.72;5051686;28;20052;-81
2021/04/23 01:38:06;;;;;;;2.92;2.00;;;;;;;8.78;100.00;93353.59;5051428;28;19928;-82
2021/04/23 01:40:32;;;;;;;5.13;2.58;;;;;;;8.93;100.00;93374.69;5051104;28;20052;-81
2021/04/23 01:42:58;;;;;;;;;;;;;;;8.95;100.00;93379.63;5051691;28;20056;-82
2021/04/23 01:45:25;;;;;;;3.40;2.13;;;;;;;8.90;100.00;93375.09;5054336;28;20368;-82
2021/04/23 01:47:51;;;;;;;;;;;;;;;8.98;100.00;93370.78;5051993;28;20045;-81
2021/04/23 01:50:19;;;;;;;4.85;2.60;;;;;;;8.95;100.00;93372.72;5051404;28;19928;-81
2021/04/23 01:52:47;;;;;;;6.20;3.00;;;;;;;8.95;100.00;93375.28;5068914;28;20052;-81
2021/04/23 01:55:17;;;;;;;3.45;2.30;;;;;;;8.98;100.00;93381.03;5069876;28;20041;-81
2021/04/23 01:57:43;;;;;;;4.60;3.08;;;;;;;8.72;100.00;93347.50;5067721;28;20056;-81
2021/04/23 02:00:15;;;;;;;5.18;3.38;;;;;;;8.92;100.00;93375.69;5052269;28;20049;-82
2021/04/23 02:02:43;;;;;;;5.43;2.08;;;;;;;8.86;100.00;93379.03;5051035;28;20485;-81
2021/04/23 02:05:11;;;;;;;5.20;2.92;;;;;;;8.88;100.00;93387.31;5051348;28;20056;-81
2021/04/23 02:07:37;;;;;;;6.15;2.47;;;;;;;8.86;100.00;93384.16;5050985;28;20048;-81
2021/04/23 02:10:09;;;;;;;4.32;2.53;;;;;;;8.85;100.00;93389.47;5050406;28;20049;-81
2021/04/23 02:12:36;;;;;;;3.03;1.98;;;;;;;8.75;100.00;93377.03;5050593;28;20492;-81
2021/04/23 02:15:04;;;;;;;6.65;3.03;;;;;;;8.78;100.00;93377.44;5050611;28;20052;-81
2021/04/23 02:17:30;;;;;;;5.63;2.97;;;;;;;8.80;100.00;93378.03;5050871;28;20057;-81
2021/04/23 02:19:56;;;;;;;;;;;;;;;8.83;100.00;93381.97;5051099;28;20045;-81
2021/04/23 02:22:23;;;;;;;9.43;2.40;;;;;;;8.79;100.00;93383.34;5050157;28;20380;-81
2021/04/23 02:24:49;;;;;;;3.13;2.00;;;;;;;8.79;100.00;93379.00;5050337;28;20048;-82
2021/04/23 02:27:15;;;;;;;;;;;;;;;8.86;100.00;93379.03;5050992;28;21423;-82
2021/04/23 02:29:46;;;;;;;3.22;2.10;;;;;;;8.69;100.00;93360.66;5049942;28;19921;-82
2021/04/23 02:32:12;;;;;;;3.20;1.65;;;;;;;8.78;100.00;93379.19;5050156;28;20099;-82
2021/04/23 02:34:39;;;;;;;4.95;2.60;;;;;;;8.80;100.00;93388.28;5049980;28;20051;-83
2021/04/23 02:37:05;;;;;;;3.13;2.30;;;;;;;8.68;100.00;93367.56;5050214;28;20049;-83
2021/04/23 02:39:31;;;;;;;;;;;;;;;8.82;100.00;93388.88;5050405;28;20041;-83
2021/04/23 02:41:58;;;;;;;3.40;2.13;;;;;;;8.63;100.00;93369.13;5049400;28;19925;-83
2021/04/23 02:44:26;;;;;;;3.78;2.40;;;;;;;8.80;100.00;93390.84;5049711;28;20060;-84
2021/04/23 02:46:54;;;;;;;3.35;1.80;;;;;;;8.78;100.00;93384.31;5049854;28;20492;-83
2021/04/23 02:49:21;;;;;;;2.28;1.42;;;;;;;8.79;100.00;93381.56;5049699;28;20053;-83
2021/04/23 02:51:47;;;;;;;;;;;;;;;8.76;100.00;93381.97;5050099;28;20048;-83
2021/04/23 02:54:14;;;;;;;3.35;2.50;;;;;;;8.69;100.00;93381.16;5049703;28;20296;-83
2021/04/23 02:56:41;;;;;;;3.92;2.50;;;;;;;8.52;100.00;93366.13;5049771;28;20049;-81
2021/04/23 02:59:08;;;;;;;3.35;2.22;;;;;;;8.50;100.00;93357.84;5050085;28;20480;-81
2021/04/23 03:01:38;;;;;;;6.35;3.13;;;;;;;8.64;100.00;93386.88;5049902;28;20056;-83
2021/04/23 03:04:06;;;;;;;7.15;3.50;;;;;;;8.62;100.00;93393.16;5049404;28;20055;-79
2021/04/23 03:06:33;;;;;;;4.93;2.83;;;;;;;8.57;100.00;93398.06;5049810;28;20045;-81
2021/04/23 03:09:00;;;;;;;5.97;3.85;;;;;;;8.63;100.00;93399.84;5049584;28;20411;-84
2021/04/23 03:11:27;;;;;;;4.80;3.10;;;;;;;8.59;100.00;93396.91;5050959;28;20476;-82
2021/04/23 03:14:00;;;;;;;5.93;3.25;;;;;;;8.58;100.00;93397.06;5048924;28;20045;-78
2021/04/23 03:16:26;;;;;;;8.73;4.80;;;;;;;8.54;100.00;93386.44;5049421;28;20049;-78
2021/04/23 03:18:53;;;;;;;5.10;3.55;;;;;;;8.68;100.00;93403.44;5048312;28;20049;-79
2021/04/23 03:21:23;;;;;;;6.45;4.28;;;;;;;8.69;100.00;93402.44;5049465;28;20052;-79
2021/04/23 03:23:49;;;;;;;6.50;3.90;;;;;;;8.76;100.00;93415.28;5047205;28;20041;-80
2021/04/23 03:26:17;;;;;;;8.80;4.20;;;;;;;8.76;100.00;93407.59;5046696;28;20049;-79
2021/04/23 03:28:44;;;;;;;6.15;4.00;;;;;;;8.80;100.00;93408.75;5047976;28;20434;-78
2021/04/23 03:31:42;;;;;;;8.00;5.25;;;;;;;8.43;100.00;93357.03;5048869;28;20481;-80
2021/04/23 03:34:10;;;;;;;7.70;4.00;;;;;;;8.81;100.00;93405.22;5044819;28;20053;-79
2021/04/23 03:36:37;;;;;;;9.98;4.30;;;;;;;8.84;100.00;93401.47;5049740;28;20052;-80
2021/04/23 03:39:08;;;;;;;8.57;4.78;;;;;;;8.90;100.00;93415.28;5049045;28;20041;-79
2021/04/23 03:41:34;;;;;;;9.52;4.90;;;;;;;8.84;100.00;93410.94;5049811;28;20041;-78
2021/04/23 03:44:17;;;;;;;;;;;;;;;8.92;100.00;93431.25;5049484;28;20126;-79
2021/04/23 03:46:43;;;;;;;8.60;4.93;;;;;;;8.88;100.00;93422.41;5048995;28;20269;-80
2021/04/23 03:49:10;;;;;;;8.68;5.35;;;;;;;8.88;100.00;93430.84;5049444;28;20060;-78
2021/04/23 03:51:37;;;;;;;;;;;;;;;8.93;100.00;93425.13;5049899;28;20064;-79
2021/04/23 03:54:04;;;;;;;15.38;5.82;;;;;;;8.90;100.00;93425.53;5048440;28;19925;-77
2021/04/23 03:56:32;;;;;;;11.40;7.60;;;;;;;8.89;100.00;93431.66;5053382;28;20041;-78
2021/04/23 03:58:58;;;;;;;14.25;6.38;;;;;;;8.88;100.00;93428.28;5053176;28;20090;-77
2021/04/23 04:01:25;;;;;;;11.50;5.72;;;;;;;8.86;100.00;93432.81;5053071;28;20071;-77
2021/04/23 04:03:53;;;;;;;8.50;5.75;;;;;;;8.80;100.00;93429.25;5053165;28;20053;-77
2021/04/23 04:06:19;;;;;;;11.43;5.95;;;;;;;8.87;100.00;93434.41;5053049;28;20087;-78
2021/04/23 04:08:46;;;;;;;;;;;;;;;8.89;100.00;93427.31;5053571;28;20053;-78
2021/04/23 04:11:13;;;;;;;9.00;5.63;;;;;;;8.86;100.00;93422.59;5053099;28;19921;-78
2021/04/23 04:13:39;;;;;;;6.90;4.38;;;;;;;8.91;100.00;93435.59;5053003;28;20057;-78
2021/04/23 04:16:05;;;;;;;;;;;;;;;8.87;100.00;93439.53;5053412;28;20045;-79
2021/04/23 04:18:31;;;;;;;8.18;4.15;;;;;;;8.85;100.00;93433.81;5052447;28;19931;-79
2021/04/23 04:20:58;;;;;;;;;;;;;;;8.89;100.00;93439.34;5053254;28;20041;-78
2021/04/23 04:23:25;;;;;;;10.50;4.18;;;;;;;8.86;100.00;93434.59;5052429;28;19971;-78
2021/04/23 04:25:56;;;;;;;7.00;4.82;;;;;;;8.72;100.00;93411.50;5052451;28;20420;-78
2021/04/23 04:28:23;;;;;;;7.28;4.85;;;;;;;8.83;100.00;93438.31;5048174;28;20080;-78
2021/04/23 04:30:49;;;;;;;9.30;5.03;;;;;;;8.80;100.00;93428.47;5050139;28;20489;-79
2021/04/23 04:33:16;;;;;;;9.10;4.55;;;;;;;8.84;100.00;93434.00;5052656;28;20370;-78
2021/04/23 04:35:44;;;;;;;7.32;4.68;;;;;;;8.78;100.00;93425.31;5052065;28;20466;-78
2021/04/23 04:38:12;;;;;;;7.80;4.53;;;;;;;8.91;100.00;93437.38;5052436;28;20064;-78
2021/04/23 04:40:40;;;;;;;6.97;4.38;;;;;;;8.98;100.00;93442.50;5052109;28;20041;-78
2021/04/23 04:43:10;;;;;;;8.30;4.90;;;;;;;9.01;100.00;93437.78;5052285;28;20065;-77
2021/04/23 04:45:37;;;;;;;10.18;5.07;;;;;;;8.98;100.00;93427.13;5052207;28;20052;-78
2021/04/23 04:48:05;;;;;;;12.07;4.47;;;;;;;9.12;100.00;93443.34;5051795;28;20049;-78
2021/04/23 04:50:35;;;;;;;8.73;5.03;;;;;;;9.16;100.00;93452.22;5051904;28;20045;-78
2021/04/23 04:53:04;;;;;;;7.53;4.53;;;;;;;9.13;100.00;93437.22;5051768;28;20064;-78
2021/04/23 04:55:33;;;;;;;9.35;5.40;;;;;;;9.26;100.00;93454.41;5052127;28;20052;-78
2021/04/23 04:58:01;;;;;;;8.38;5.57;;;;;;;9.39;100.00;93459.53;5051612;28;20064;-78
2021/04/23 05:00:29;;;;;;;12.65;4.75;;;;;;;9.33;100.00;93450.84;5052200;28;20072;-78
2021/04/23 05:02:56;;;;;;;10.57;4.75;;;;;;;9.47;100.00;93455.97;5052115;28;20041;-78
2021/04/23 05:05:24;;;;;;;10.35;5.88;;;;;;;9.53;100.00;93460.31;5051088;28;20055;-78
2021/04/23 05:07:51;;;;;;;8.88;5.07;;;;;;;9.56;100.00;93457.38;5052054;28;20048;-78
2021/04/23 05:10:17;;;;;;;8.60;4.45;;;;;;;9.58;100.00;93465.66;5051691;28;20060;-79
2021/04/23 05:12:46;;;;;;;;;;;;;;;9.59;100.00;93476.72;5052294;28;20060;-79
2021/04/23 05:15:14;;;;;;;7.55;4.28;;;;;;;9.58;100.00;93488.75;5051924;28;19921;-79
2021/04/23 05:17:41;;;;;;;12.57;4.63;;;;;;;9.57;100.00;93483.78;5051423;28;20049;-79
2021/04/23 05:20:08;;;;;;;4.95;3.83;;;;;;;9.61;100.00;93490.13;5051722;28;20063;-79
2021/04/23 05:22:35;;;;;;;7.00;4.00;;;;;;;9.61;100.00;93474.72;5051433;28;20041;-78
2021/04/23 05:25:02;;;;;;;5.85;4.40;;;;;;;9.66;100.00;93480.06;5051569;28;20068;-79
2021/04/23 05:27:29;;;;;;;7.00;3.75;;;;;;;9.68;100.00;93485.00;5051550;28;20053;-79
2021/04/23 05:29:55;;;;;;;;;;;;;;;9.75;100.00;93491.72;5052174;28;20393;-79
2021/04/23 05:32:21;;;;;;;5.35;2.75;;;;;;;9.67;100.00;93498.81;5051240;28;19920;-78
2021/04/23 05:34:49;;;;;;;5.65;3.20;;;;;;;9.70;100.00;93493.28;5051615;28;20052;-79
2021/04/23 05:37:15;;;;;;;6.57;3.53;;;;;;;9.49;100.00;93462.50;5051453;28;20045;-78
2021/04/23 05:39:42;;;;;;;;;;;;;;;9.68;100.00;93493.47;5051676;28;20049;-79
2021/04/23 05:42:09;;;;;;;7.38;2.70;;;;;;;9.60;100.00;93494.47;5051120;28;20419;-79
2021/04/23 05:44:36;;;;;;;4.93;3.15;;;;;;;9.63;100.00;93501.00;5050725;28;20493;-79
2021/04/23 05:47:04;;;;;;;7.53;2.85;;;;;;;9.73;100.00;93511.63;5050830;28;20056;-79
2021/04/23 05:49:31;;;;;;;6.93;3.65;;;;;;;9.77;100.00;93509.50;5051042;28;20048;-80
2021/04/23 05:51:58;;;;;;;7.13;3.60;;;;;;;9.79;100.00;93504.94;5051148;28;20049;-79
2021/04/23 05:54:24;;;;;;;6.72;3.78;;;;;;;9.79;100.00;93502.38;5051315;28;20420;-79
2021/04/23 05:56:51;;;;;;;6.57;3.55;;;;;;;9.81;100.00;93515.78;5050791;28;20041;-78
2021/04/23 05:59:17;;;;;;;;;;;;;;;9.86;100.00;93518.53;5051536;28;20447;-79
2021/04/23 06:01:44;;;;;;;5.60;4.10;;;;;;;9.82;100.00;93514.00;5050790;28;19920;-78
2021/04/23 06:04:10;;;;;;;;;;;;;;;9.92;100.00;93526.44;5051411;28;20094;-78
2021/04/23 06:06:36;;;;;;;4.63;2.75;;;;;;;9.94;100.00;93519.31;5050761;28;19924;-77
2021/04/23 06:09:03;;;;;;;;;;;;;;;10.02;100.00;93519.16;5050794;28;20095;-78
2021/04/23 06:11:33;;;;;;;6.05;3.15;;;;;;;10.05;100.00;93528.22;5050828;28;19924;-78
2021/04/23 06:13:59;;;;;;;6.22;3.35;;;;;;;10.12;100.00;93523.88;5050746;28;20045;-78
2021/04/23 06:16:25;;;;;;;;;;;;;;;10.20;100.00;93522.88;5051017;28;20493;-77
2021/04/23 06:18:52;;;;;;;7.75;4.50;;;;;;;10.28;100.00;93525.25;5050017;28;19921;-78
2021/04/23 06:21:18;;;;;;;9.48;5.72;;;;;;;10.27;100.00;93532.16;5050854;28;20071;-78
2021/04/23 06:23:45;;;;;;;10.57;5.78;;;;;;;10.32;100.00;93512.81;5050499;28;20053;-78
2021/04/23 06:26:12;;;;;;;8.90;5.43;;;;;;;10.38;100.00;93515.34;5050167;28;20053;-77
2021/04/23 06:28:39;;;;;;;10.65;5.93;;;;;;;10.56;100.00;93527.59;5050523;28;20041;-78
2021/04/23 06:31:07;;;;;;;36.22;12.80;;;;;;;10.61;100.00;93524.44;5050511;28;20049;-78
2021/04/23 06:33:36;;;;;;;8.18;4.18;;;;;;;10.67;100.00;93522.81;5050191;28;20139;-78
2021/04/23 06:36:03;;;;;;;13.02;5.85;;;;;;;10.76;100.00;93531.09;5050003;28;20049;-78
2021/04/23 06:38:30;;;;;;;71.60;22.48;;;;;;;10.74;100.00;93515.09;5050318;28;20412;-78
2021/04/23 06:40:56;;;;;;;;;;;;;;;10.84;100.00;93525.75;5050797;28;20409;-78
2021/04/23 06:43:23;;;;;;;42.97;19.23;;;;;;;10.86;100.00;93526.31;5049692;28;19920;-78
2021/04/23 06:45:50;;;;;;;113.00;44.53;;;;;;;10.92;100.00;93525.50;5050083;28;20045;-78
2021/04/23 06:48:18;;;;;;;36.42;15.90;;;;;;;10.99;100.00;93528.06;5050103;28;20045;-77
2021/04/23 06:50:45;;;;;;;42.67;15.65;;;;;;;10.89;100.00;93525.94;5049880;28;20072;-77
2021/04/23 06:53:11;;;;;;;127.82;45.72;;;;;;;10.91;100.00;93535.97;5049748;28;20083;-77
2021/04/23 06:55:38;;;;;;;227.25;69.80;;;;;;;10.86;100.00;93531.47;5049695;28;20106;-77
2021/04/23 06:58:05;;;;;;;92.20;35.88;;;;;;;10.85;100.00;93532.47;5049902;28;20044;-77
2021/04/23 07:00:35;;;;;;;47.95;21.05;;;;;;;11.02;100.00;93537.16;5049661;28;20045;-77
2021/04/23 07:03:02;;;;;;;79.97;29.33;;;;;;;11.06;100.00;93533.19;5049372;28;20055;-78
2021/04/23 07:05:29;;;;;;;113.50;33.83;;;;;;;11.16;100.00;93532.75;5049867;28;20052;-78
2021/04/23 07:07:56;;;;;;;54.15;20.00;;;;;;;11.11;100.00;93525.63;5049498;28;20523;-77
2021/04/23 07:10:24;;;;;;;144.18;46.58;;;;;;;11.14;100.00;93542.41;5049377;28;20499;-77
2021/04/23 07:12:51;;;;;;;134.40;49.97;;;;;;;11.13;100.00;93533.13;5049857;28;20064;-77
2021/04/23 07:15:20;;;;;;;83.40;31.48;;;;;;;11.00;100.00;93531.41;5043656;28;20065;-77
2021/04/23 07:17:47;;;;;;;77.72;30.85;;;;;;;10.99;100.00;93546.06;5043425;28;20049;-77
2021/04/23 07:20:15;;;;;;;122.13;45.53;;;;;;;10.84;100.00;93525.75;5038349;28;20092;-78
2021/04/23 07:22:42;;;;;;;158.80;56.70;;;;;;;10.88;100.00;93542.31;5038768;28;20041;-77
2021/04/23 07:25:09;;;;;;;82.63;29.55;;;;;;;10.79;100.00;93538.41;5040006;28;20057;-77
2021/04/23 07:27:36;;;;;;;50.45;20.98;;;;;;;10.90;100.00;93542.91;5039719;28;20065;-78
2021/04/23 07:30:04;;;;;;;87.35;28.85;;;;;;;10.93;100.00;93529.66;5039210;28;20037;-77
2021/04/23 07:32:30;;;;;;;26.23;12.02;;;;;;;11.20;100.00;93551.91;5039396;28;20103;-78
2021/04/23 07:34:57;;;;;;;84.07;25.42;;;;;;;11.30;100.00;93556.59;5036713;28;20493;-77
2021/04/23 07:37:24;;;;;;;66.18;22.73;;;;;;;11.20;100.00;93544.97;5042757;28;20048;-77
2021/04/23 07:39:50;;;;;;;14.43;6.25;;;;;;;11.26;100.00;93551.09;5049035;28;20041;-77
2021/04/23 07:42:16;;;;;;;10.85;5.22;;;;;;;11.29;100.00;93563.53;5041273;28;20052;-77
2021/04/23 07:44:42;;;;;;;;;;;;;;;11.38;100.00;93565.88;5039033;28;20565;-77
2021/04/23 07:47:09;;;;;;;4.93;2.05;;;;;;;11.30;100.00;93572.03;5038551;28;20270;-77
2021/04/23 07:49:35;;;;;;;7.57;2.83;;;;;;;11.02;100.00;93565.44;5038305;28;20049;-77
2021/04/23 07:52:04;;;;;;;6.07;2.80;;;;;;;11.02;100.00;93568.75;5039491;28;20049;-77
2021/04/23 07:54:30;;;;;;;4.03;2.30;;;;;;;10.68;100.00;93555.22;5039221;28;20050;-78
2021/04/23 07:56:57;;;;;;;5.40;2.53;;;;;;;10.52;100.00;93562.38;5029165;28;20045;-78
2021/04/23 07:59:23;;;;;;;;;;;;;;;10.22;100.00;93565.34;5030272;28;20072;-78
2021/04/23 08:01:53;;;;;;;4.38;2.53;;;;;;;10.01;100.00;93561.19;5051230;28;19925;-79
2021/04/23 08:04:20;;;;;;;3.75;2.45;;;;;;;9.82;100.00;93555.84;5049013;28;20159;-79
2021/04/23 08:06:46;;;;;;;4.55;2.88;;;;;;;9.60;100.00;93556.03;5062326;28;20059;-79
2021/04/23 08:09:14;;;;;;;3.13;1.63;;;;;;;9.39;100.00;93546.69;5069072;28;20052;-78
2021/04/23 08:11:40;;;;;;;1.95;1.38;;;;;;;9.28;100.00;93554.94;5067479;28;20534;-78
2021/04/23 08:14:07;;;;;;;2.97;1.50;;;;;;;9.19;100.00;93539.75;5069012;28;20419;-78
2021/04/23 08:16:33;;;;;;;2.10;1.27;;;;;;;9.32;100.00;93553.59;5068678;28;20051;-78
2021/04/23 08:18:59;;;;;;;;;;;;;;;9.23;100.00;93558.88;5054966;28;20444;-78
2021/04/23 08:21:26;;;;;;;3.03;1.60;;;;;;;9.17;100.00;93558.88;5048980;28;19924;-78
2021/04/23 08:23:52;;;;;;;1.38;0.80;;;;;;;9.11;100.00;93562.97;5048471;28;20041;-78
2021/04/23 08:26:19;;;;;;;;;;;;;;;9.16;100.00;93560.63;5049285;28;20048;-78
2021/04/23 08:28:46;;;;;;;2.78;1.48;;;;;;;9.26;100.00;93567.94;5048534;28;19921;-78
2021/04/23 08:31:12;;;;;;;2.03;1.15;;;;;;;9.32;100.00;93566.41;5048803;28;20049;-78
2021/04/23 08:33:38;;;;;;;;;;;;;;;9.26;100.00;93570.50;5049100;28;20056;-77
2021/04/23 08:36:05;;;;;;;6.72;2.83;;;;;;;9.23;100.00;93568.34;5048395;28;19922;-77
2021/04/23 08:38:31;;;;;;;3.42;1.50;;;;;;;9.28;100.00;93566.00;5048852;28;20099;-78
2021/04/23 08:40:57;;;;;;;;;;;;;;;9.40;100.00;93573.91;5050714;28;20096;-78
2021/04/23 08:43:25;;;;;;;4.40;1.55;;;;;;;9.43;100.00;93570.16;5051879;28;19924;-78
2021/04/23 08:45:52;;;;;;;7.95;1.98;;;;;;;9.59;100.00;93567.25;5051943;28;20056;-79
2021/04/23 08:48:20;;;;;;;4.78;2.67;;;;;;;9.81;100.00;93567.09;5052253;28;20053;-78
2021/04/23 08:50:46;;;;;;;12.30;2.95;;;;;;;9.95;100.00;93575.59;5051973;28;20531;-78
2021/04/23 08:53:13;;;;;;;10.63;2.38;;;;;;;10.05;100.00;93577.00;5052241;28;20052;-79
2021/04/23 08:55:40;;;;;;;14.63;1.83;;;;;;;10.19;100.00;93568.31;5067044;28;20060;-79
2021/04/23 08:58:06;;;;;;;12.23;1.90;;;;;;;10.38;100.00;93565.94;5072094;28;20048;-79
2021/04/23 09:00:33;;;;;;;;;;;;;;;10.60;100.00;93573.44;5072286;28;20048;-79
2021/04/23 09:02:59;;;;;;;25.85;2.92;;;;;;;10.76;100.00;93572.22;5071790;28;20298;-79
2021/04/23 09:05:26;;;;;;;8.32;4.88;;;;;;;10.86;100.00;93559.72;5071749;28;20056;-79
2021/04/23 09:07:59;;;;;;;;;;;;;;;11.11;100.00;93579.59;5072409;28;20055;-79
2021/04/23 09:10:25;;;;;;;10.57;3.30;;;;;;;11.16;100.00;93569.50;5071524;28;20047;-79
2021/04/23 09:13:05;;;;;;;8.32;3.83;;;;;;;11.28;100.00;93572.25;5071859;28;20048;-79
2021/04/23 09:15:31;;;;;;;11.55;3.97;;;;;;;11.23;100.00;93561.78;5071525;28;20420;-79
2021/04/23 09:18:11;;;;;;;10.90;3.55;;;;;;;11.14;100.00;93566.34;5071508;28;20063;-79
2021/04/23 09:20:39;;;;;;;7.05;3.10;;;;;;;11.16;100.00;93572.06;5071530;28;20036;-79
2021/04/23 09:23:08;;;;;;;7.07;3.40;;;;;;;11.09;100.00;93566.97;5071300;28;20048;-78
2021/04/23 09:25:46;;;;;;;9.05;2.83;;;;;;;11.03;100.00;93554.16;5071503;28;20056;-78
2021/04/23 09:28:13;;;;;;;9.63;2.42;;;;;;;11.02;100.00;93561.06;5051283;28;20057;-78
2021/04/23 09:30:40;;;;;;;6.15;3.28;;;;;;;11.03;100.00;93549.81;5051487;28;20451;-78
2021/04/23 09:35:59;;;;;;;7.18;3.10;;;;;;;11.33;100.00;93561.31;5148156;27;20339;-77
2021/04/23 09:38:25;;;;;;;5.28;2.60;;;;;;;11.34;100.00;93560.34;5148154;27;20554;-77
2021/04/23 09:40:51;;;;;;;;;;;;;;;11.35;100.00;93565.28;5148789;27;20047;-77
2021/04/23 09:43:35;;;;;;;6.88;3.40;;;;;;;11.33;100.00;93569.84;5148338;27;19920;-76
2021/04/23 09:46:02;;;;;;;8.82;3.40;;;;;;;11.38;100.00;93564.06;5147865;27;20047;-77
2021/04/23 09:48:28;;;;;;;;;;;;;;;11.54;100.00;93567.16;5148638;27;20047;-78
2021/04/23 09:50:55;;;;;;;7.13;2.75;;;;;;;11.49;100.00;93571.13;5148178;27;19968;-77
2021/04/23 09:53:29;;;;;;;6.95;3.30;;;;;;;11.52;100.00;93580.22;5147924;27;20452;-77
2021/04/23 09:55:59;;;;;;;7.82;4.60;;;;;;;11.52;100.00;93571.75;5147968;27;20062;-77
2021/04/23 09:58:28;;;;;;;10.23;5.63;;;;;;;11.52;100.00;93572.50;5148102;27;20126;-77
2021/04/23 10:00:58;;;;;;;10.30;3.25;;;;;;;11.52;100.00;93562.22;5147560;27;20258;-77
2021/04/23 10:03:31;;;;;;;4.85;2.10;;;;;;;11.26;100.00;93558.00;5148064;27;20042;-77
2021/04/23 10:06:19;;;;;;;4.85;2.10;;;;;;;11.37;100.00;93565.06;5147617;27;20611;-76
2021/04/23 10:08:46;;;;;;;5.47;1.65;;;;;;;11.46;100.00;93560.47;5147741;27;20130;-77
2021/04/23 10:11:12;;;;;;;4.18;2.78;;;;;;;11.65;100.00;93565.72;5147918;27;20054;-77
2021/04/23 10:13:38;;;;;;;;;;;;;;;11.68;100.00;93570.44;5148257;27;20043;-77
2021/04/23 10:16:05;;;;;;;2.05;1.20;;;;;;;11.62;100.00;93575.44;5147689;27;19964;-77
2021/04/23 10:18:32;;;;;;;2.40;1.00;;;;;;;11.66;100.00;93588.66;5147459;27;20046;-77
2021/04/23 10:21:00;;;;;;;0.75;0.45;;;;;;;11.46;100.00;93583.63;5147467;27;20142;-77
2021/04/23 10:23:27;;;;;;;1.70;0.98;;;;;;;11.32;100.00;93581.13;5147299;27;20042;-77
2021/04/23 10:25:56;;;;;;;2.40;1.00;;;;;;;11.21;100.00;93556.81;5147346;27;20482;-77
2021/04/23 10:28:25;;;;;;;2.42;0.85;;;;;;;11.47;100.00;93590.34;5147132;27;20042;-78
2021/04/23 10:30:55;;;;;;;2.47;0.52;;;;;;;11.70;100.00;93589.03;5147211;27;20502;-77
2021/04/23 10:33:23;;;;;;;1.48;0.77;;;;;;;11.87;100.00;93595.28;5147277;27;20043;-77
2021/04/23 10:35:51;;;;;;;1.70;1.13;;;;;;;12.06;100.00;93595.38;5144028;27;20074;-78
2021/04/23 10:38:19;;;;;;;1.05;0.47;;;;;;;11.80;97.95;93593.75;5145315;27;20087;-77
2021/04/23 10:40:53;;;;;;;1.88;1.00;;;;;;;11.71;99.82;93593.22;5145909;27;20091;-77
2021/04/23 10:43:21;;;;;;;4.47;1.00;;;;;;;11.69;100.00;93587.47;5146699;27;20566;-78
2021/04/23 10:46:00;;;;;;;1.90;0.82;;;;;;;11.60;100.00;93574.84;5141918;27;20059;-76
2021/04/23 10:48:29;;;;;;;2.75;1.00;;;;;;;11.49;100.00;93585.81;5133212;27;20103;-76
2021/04/23 10:50:58;;;;;;;1.67;1.05;;;;;;;11.74;99.56;93585.06;5133102;27;20109;-76
2021/04/23 10:53:44;;;;;;;4.25;1.23;;;;;;;11.83;97.98;93594.13;5132824;27;20057;-77
2021/04/23 10:56:22;;;;;;;0.85;0.40;;;;;;;11.66;97.25;93586.09;5133139;27;20120;-76
2021/04/23 10:58:50;;;;;;;0.98;0.55;;;;;;;11.23;97.67;93579.78;5133181;27;20043;-76
2021/04/23 11:01:34;;;;;;;1.67;0.98;;;;;;;11.29;99.12;93584.09;5132783;27;20047;-76
2021/04/23 11:04:10;;;;;;;1.77;0.95;;;;;;;11.44;100.00;93572.75;5132897;27;20047;-76
2021/04/23 11:06:37;;;;;;;1.45;0.93;;;;;;;11.93;100.00;93582.59;5133072;27;20435;-76
2021/04/23 11:09:10;;;;;;;2.58;1.20;;;;;;;12.22;98.22;93585.56;5132808;27;20042;-76
2021/04/23 11:11:37;;;;;;;2.50;0.85;;;;;;;12.06;95.86;93572.22;5132756;27;20043;-76
2021/04/23 11:14:22;;;;;;;5.47;1.85;;;;;;;11.90;95.90;93582.00;5132519;27;20051;-76
2021/04/23 11:16:49;;;;;;;2.45;0.93;;;;;;;11.98;95.41;93575.00;5132408;27;20043;-77
2021/04/23 11:19:36;;;;;;;1.98;0.98;;;;;;;11.82;96.59;93577.09;5132630;27;20054;-76
2021/04/23 11:22:09;;;;;;;2.70;1.15;;;;;;;11.87;98.56;93572.13;5132456;27;20039;-77
2021/04/23 11:24:37;;;;;;;2.00;0.93;;;;;;;12.06;97.97;93568.84;5128949;27;20054;-78
2021/04/23 11:27:12;;;;;;;3.40;1.00;;;;;;;11.83;92.81;93575.31;5130501;27;20467;-77
2021/04/23 11:29:42;;;;;;;1.35;0.80;;;;;;;11.47;95.07;93580.84;5129495;27;20052;-77
2021/04/23 11:32:16;;;;;;;6.30;2.55;;;;;;;11.65;96.14;93569.09;5130534;27;20043;-77
2021/04/23 11:34:45;;;;;;;1.75;1.13;;;;;;;11.97;97.25;93563.94;5128164;27;20059;-77
2021/04/23 11:37:14;;;;;;;18.80;5.93;;;;;;;12.22;92.17;93565.75;5131025;27;20092;-77
2021/04/23 11:39:43;;;;;;;8.23;2.97;;;;;;;12.87;94.95;93561.19;5130028;27;20600;-78
2021/04/23 11:42:18;;;;;;;1.48;0.75;;;;;;;13.36;90.05;93560.44;5129816;27;20490;-78
2021/04/23 11:44:54;;;;;;;1.73;1.00;;;;;;;13.75;88.43;93555.78;5130382;27;20054;-78